Time;durP1;ratioP1;P1;durP2;ratioP2;P2;SDS_P1;SDS_P2;PMS_P1;PMS_P2;Temp;Humidity;BMP_temperature;BMP_pressure;BME280_temperature;BME280_humidity;BME280_pressure;Samples;Min_cycle;Max_cycle;Signal;HPM_P1;HPM_P2
2022/04/29 00:00:18;;;;;;;17.90;7.05;;;;;;;12.96;55.08;102149.34;5012815;28;20037;-85
2022/04/29 00:02:45;;;;;;;11.30;6.63;;;;;;;12.95;55.21;102152.91;5012964;28;20029;-85
2022/04/29 00:05:11;;;;;;;13.93;6.57;;;;;;;13.04;55.06;102149.81;5012652;28;20018;-85
2022/04/29 00:07:38;;;;;;;16.55;7.00;;;;;;;13.13;54.81;102152.91;5012747;28;20068;-85
2022/04/29 00:10:08;;;;;;;15.82;6.85;;;;;;;13.04;55.37;102144.53;5012693;28;20033;-85
2022/04/29 00:12:33;;;;;;;14.73;7.25;;;;;;;12.96;55.33;102144.06;5011516;28;20033;-85
2022/04/29 00:14:59;;;;;;;18.08;7.60;;;;;;;13.02;55.19;102142.91;5013004;28;20438;-85
2022/04/29 00:17:25;;;;;;;13.82;6.90;;;;;;;13.05;55.15;102140.09;5012812;28;20026;-85
2022/04/29 00:19:51;;;;;;;19.15;6.55;;;;;;;12.88;55.67;102140.97;5012774;28;20519;-85
2022/04/29 00:22:16;;;;;;;18.33;6.95;;;;;;;12.75;56.12;102139.88;5011439;28;20042;-84
2022/04/29 00:24:41;;;;;;;17.38;7.00;;;;;;;12.83;56.00;102128.00;5013042;28;20021;-85
2022/04/29 00:27:07;;;;;;;8.65;5.88;;;;;;;12.74;56.26;102132.88;5012905;28;20018;-85
2022/04/29 00:29:32;;;;;;;17.25;6.43;;;;;;;12.87;56.12;102131.34;5012612;28;20113;-85
2022/04/29 00:31:58;;;;;;;15.98;7.88;;;;;;;12.68;56.26;102121.72;5012688;28;20034;-84
2022/04/29 00:34:23;;;;;;;12.75;6.30;;;;;;;12.73;56.12;102126.75;5011203;28;20060;-85
2022/04/29 00:36:48;;;;;;;11.35;6.38;;;;;;;12.76;55.94;102129.25;5012684;28;20018;-85
2022/04/29 00:39:14;;;;;;;11.95;6.90;;;;;;;12.65;56.51;102121.88;5012427;28;20041;-85
2022/04/29 00:41:39;;;;;;;11.00;6.53;;;;;;;12.71;56.03;102115.44;5012300;28;20025;-85
2022/04/29 00:44:07;;;;;;;14.82;8.20;;;;;;;12.60;56.76;102117.75;5012608;28;20080;-85
2022/04/29 00:46:38;;;;;;;13.70;6.63;;;;;;;12.54;56.83;102116.28;5012892;28;20026;-85
2022/04/29 00:49:06;;;;;;;13.20;6.45;;;;;;;12.66;56.73;102109.56;5012304;28;20030;-85
2022/04/29 00:51:31;;;;;;;14.88;7.40;;;;;;;12.44;56.92;102109.75;5011478;28;20494;-85
2022/04/29 00:53:57;;;;;;;8.68;6.43;;;;;;;12.56;56.65;102103.91;5012593;28;20108;-85
2022/04/29 00:56:25;;;;;;;13.32;6.18;;;;;;;12.63;56.70;102109.69;5012314;28;20481;-85
2022/04/29 00:59:16;;;;;;;13.63;6.40;;;;;;;12.79;56.34;102112.44;5011969;28;20032;-85
2022/04/29 01:01:45;;;;;;;14.17;7.20;;;;;;;12.73;56.40;102110.94;5010472;28;20038;-84
2022/04/29 01:04:17;;;;;;;16.20;7.38;;;;;;;12.73;56.59;102112.75;5012201;28;20073;-85
2022/04/29 01:06:42;;;;;;;12.73;6.70;;;;;;;12.37;57.49;102108.34;5011685;28;20038;-85
2022/04/29 01:09:07;;;;;;;13.32;6.40;;;;;;;12.49;57.38;102099.84;5012215;28;20056;-85
2022/04/29 01:11:33;;;;;;;13.80;6.72;;;;;;;12.55;56.83;102099.53;5012119;28;20152;-85
2022/04/29 01:13:58;;;;;;;11.95;7.43;;;;;;;12.35;57.69;102095.25;5010790;28;20029;-85
2022/04/29 01:16:23;;;;;;;11.75;6.97;;;;;;;12.58;57.05;102101.16;5011890;28;20030;-85
2022/04/29 01:18:52;;;;;;;16.00;6.93;;;;;;;12.57;56.96;102102.94;5012148;28;20030;-85
2022/04/29 01:21:18;;;;;;;14.18;7.05;;;;;;;12.52;57.16;102091.81;5011389;28;20084;-85
2022/04/29 01:23:43;;;;;;;18.17;7.00;;;;;;;12.49;56.79;102091.94;5012002;28;20038;-85
2022/04/29 01:26:10;;;;;;;18.98;7.43;;;;;;;12.20;57.87;102086.28;5011872;28;20018;-85
2022/04/29 01:28:35;;;;;;;14.90;6.72;;;;;;;12.46;57.70;102092.06;5012014;28;20030;-85
2022/04/29 01:31:03;;;;;;;16.17;7.22;;;;;;;12.67;56.82;102090.16;5012025;28;20383;-85
2022/04/29 01:33:29;;;;;;;17.17;9.43;;;;;;;12.47;57.16;102093.78;5011871;28;20067;-85
2022/04/29 01:35:55;;;;;;;17.77;7.32;;;;;;;12.46;57.25;102097.34;5011661;28;20034;-85
2022/04/29 01:38:21;;;;;;;13.57;6.93;;;;;;;12.47;57.29;102092.00;5012124;28;20048;-85
2022/04/29 01:40:47;;;;;;;10.90;6.70;;;;;;;12.21;57.96;102092.44;5017515;28;20033;-86
2022/04/29 01:43:12;;;;;;;17.48;7.70;;;;;;;12.42;57.37;102090.53;5023421;28;20399;-85
2022/04/29 01:45:38;;;;;;;14.15;7.43;;;;;;;12.50;57.23;102080.50;5021856;28;20468;-84
2022/04/29 01:48:04;;;;;;;13.75;6.18;;;;;;;12.47;57.32;102091.16;5015254;28;20438;-85
2022/04/29 01:50:29;;;;;;;17.88;7.70;;;;;;;12.35;57.69;102089.97;5013838;28;20442;-85
2022/04/29 01:52:54;;;;;;;22.40;8.35;;;;;;;12.35;58.22;102094.41;5011594;28;20477;-85
2022/04/29 01:55:20;;;;;;;11.38;6.10;;;;;;;12.35;57.29;102083.88;5010196;28;20018;-85
2022/04/29 01:57:49;;;;;;;14.52;7.32;;;;;;;12.39;57.59;102086.25;5011989;28;20017;-85
2022/04/29 02:00:14;;;;;;;15.75;8.07;;;;;;;12.34;57.72;102083.00;5013718;28;20037;-85
2022/04/29 02:02:40;;;;;;;20.35;7.53;;;;;;;12.40;57.34;102089.75;5013857;28;20029;-86
2022/04/29 02:05:06;;;;;;;14.27;7.05;;;;;;;12.33;57.79;102088.34;5014593;28;20076;-85
2022/04/29 02:07:31;;;;;;;15.05;7.32;;;;;;;12.32;57.66;102086.63;5014771;28;20021;-85
2022/04/29 02:09:56;;;;;;;12.90;7.25;;;;;;;12.15;58.02;102088.31;5015029;28;20033;-85
2022/04/29 02:12:22;;;;;;;13.85;7.40;;;;;;;12.28;57.61;102084.16;5012281;28;20030;-85
2022/04/29 02:14:47;;;;;;;18.05;7.00;;;;;;;12.13;58.01;102095.44;5014205;28;20026;-85
2022/04/29 02:17:13;;;;;;;11.68;7.63;;;;;;;12.32;57.69;102091.91;5014839;28;20026;-85
2022/04/29 02:19:38;;;;;;;14.55;7.68;;;;;;;12.34;57.42;102087.41;5014889;28;20023;-85
2022/04/29 02:22:05;;;;;;;35.10;11.23;;;;;;;12.40;57.44;102082.72;5014626;28;20034;-85
2022/04/29 02:24:34;;;;;;;16.63;7.20;;;;;;;12.39;57.35;102085.41;5013449;28;20037;-85
2022/04/29 02:27:00;;;;;;;15.68;7.72;;;;;;;12.00;58.65;102096.94;5014777;28;20025;-85
2022/04/29 02:29:29;;;;;;;14.02;7.25;;;;;;;12.02;58.59;102089.81;5014594;28;20059;-85
2022/04/29 02:31:56;;;;;;;17.83;7.55;;;;;;;12.01;58.35;102086.34;5014661;28;20034;-85
2022/04/29 02:34:23;;;;;;;14.55;7.32;;;;;;;11.96;59.04;102087.47;5014550;28;20033;-85
2022/04/29 02:36:48;;;;;;;11.57;6.85;;;;;;;11.91;58.74;102087.69;5014055;28;20026;-84
2022/04/29 02:39:14;;;;;;;15.95;7.20;;;;;;;11.86;58.93;102085.22;5014513;28;20383;-85
2022/04/29 02:41:40;;;;;;;11.57;6.32;;;;;;;11.80;58.69;102088.16;5014324;28;20048;-85
2022/04/29 02:44:05;;;;;;;10.88;6.30;;;;;;;11.79;58.84;102091.72;5013103;28;20030;-85
2022/04/29 02:46:31;;;;;;;12.90;7.38;;;;;;;11.72;58.89;102085.00;5014137;28;20021;-85
2022/04/29 02:48:56;;;;;;;10.38;6.05;;;;;;;11.72;58.68;102087.66;5013102;28;20076;-85
2022/04/29 02:51:21;;;;;;;9.38;6.18;;;;;;;11.62;58.96;102083.72;5013857;28;20018;-85
2022/04/29 02:53:47;;;;;;;19.92;7.25;;;;;;;11.66;58.82;102080.88;5014202;28;20125;-85
2022/04/29 02:56:12;;;;;;;12.57;7.72;;;;;;;11.49;59.41;102079.03;5013019;28;20068;-85
2022/04/29 02:58:38;;;;;;;10.40;7.25;;;;;;;11.46;59.52;102075.69;5014011;28;20029;-85
2022/04/29 03:01:03;;;;;;;10.23;6.75;;;;;;;11.48;58.47;102076.47;5013897;28;20052;-85
2022/04/29 03:03:29;;;;;;;14.70;7.63;;;;;;;11.48;58.52;102072.06;5013941;28;20029;-85
2022/04/29 03:05:54;;;;;;;15.25;6.82;;;;;;;11.40;58.75;102071.56;5012154;28;20463;-84
2022/04/29 03:08:19;;;;;;;11.65;6.95;;;;;;;11.32;58.88;102074.53;5013979;28;20030;-85
2022/04/29 03:10:46;;;;;;;12.25;7.65;;;;;;;11.11;59.73;102081.56;5013899;28;20121;-85
2022/04/29 03:13:12;;;;;;;13.98;7.10;;;;;;;11.22;59.44;102081.09;5014005;28;20038;-85
2022/04/29 03:15:38;;;;;;;15.18;7.47;;;;;;;11.30;59.42;102084.25;5013881;28;20542;-84
2022/04/29 03:18:18;;;;;;;9.95;7.28;;;;;;;11.35;59.14;102081.41;5013577;28;20029;-85
2022/04/29 03:20:45;;;;;;;11.27;6.50;;;;;;;11.37;58.96;102071.66;5011903;28;20022;-85
2022/04/29 03:23:12;;;;;;;13.80;6.03;;;;;;;11.32;58.87;102068.41;5012403;28;20114;-85
2022/04/29 03:25:38;;;;;;;15.30;7.60;;;;;;;11.26;58.98;102066.06;5013618;28;20101;-85
2022/04/29 03:28:06;;;;;;;11.85;6.72;;;;;;;11.22;59.36;102070.59;5013601;28;20113;-84
2022/04/29 03:30:32;;;;;;;11.75;6.63;;;;;;;11.17;58.94;102069.94;5013443;28;20033;-85
2022/04/29 03:32:59;;;;;;;10.88;6.80;;;;;;;11.14;58.98;102066.56;5013376;28;20499;-85
2022/04/29 03:35:25;;;;;;;8.60;6.07;;;;;;;11.11;58.86;102072.81;5013123;28;20042;-85
2022/04/29 03:37:53;;;;;;;15.10;7.55;;;;;;;11.03;59.34;102070.53;5013426;28;20491;-85
2022/04/29 03:40:22;;;;;;;12.60;6.38;;;;;;;11.02;59.05;102068.84;5012958;28;20029;-85
2022/04/29 03:42:57;;;;;;;9.52;6.00;;;;;;;11.12;59.03;102071.94;5013234;28;20379;-85
2022/04/29 03:45:26;;;;;;;9.02;6.80;;;;;;;11.01;59.53;102066.28;5013159;28;20032;-85
2022/04/29 03:47:54;;;;;;;10.98;7.18;;;;;;;10.96;59.31;102079.63;5013303;28;20041;-85
2022/04/29 03:50:23;;;;;;;9.85;6.85;;;;;;;10.95;59.05;102069.16;5012630;28;20116;-84
2022/04/29 03:52:54;;;;;;;14.23;7.60;;;;;;;11.01;59.77;102061.84;5013063;28;20025;-85
2022/04/29 03:55:21;;;;;;;11.13;6.47;;;;;;;10.91;59.63;102057.94;5012863;28;20030;-85
2022/04/29 03:57:46;;;;;;;11.43;7.07;;;;;;;10.88;59.64;102065.94;5011775;28;20361;-85
2022/04/29 04:00:13;;;;;;;8.98;6.40;;;;;;;10.88;59.63;102055.41;5013527;28;20029;-85
2022/04/29 04:02:39;;;;;;;14.77;7.05;;;;;;;10.79;59.66;102061.09;5013161;28;20033;-85
2022/04/29 04:05:05;;;;;;;15.85;7.50;;;;;;;10.81;59.96;102062.72;5012947;28;20022;-85
2022/04/29 04:07:31;;;;;;;11.32;7.20;;;;;;;10.78;59.53;102052.34;5013150;28;20026;-85
2022/04/29 04:09:56;;;;;;;13.68;7.05;;;;;;;10.72;59.68;102057.84;5012877;28;20076;-85
2022/04/29 04:12:22;;;;;;;10.65;7.25;;;;;;;10.73;59.60;102049.06;5012708;28;20425;-85
2022/04/29 04:14:47;;;;;;;13.50;8.18;;;;;;;10.70;59.28;102057.94;5012674;28;20022;-85
2022/04/29 04:17:13;;;;;;;9.95;6.25;;;;;;;10.64;59.88;102055.56;5012670;28;20034;-84
2022/04/29 04:19:38;;;;;;;15.52;8.35;;;;;;;10.64;59.98;102058.19;5012289;28;20029;-84
2022/04/29 04:22:04;;;;;;;13.70;7.95;;;;;;;10.61;59.79;102058.31;5012374;28;20029;-85
2022/04/29 04:24:30;;;;;;;12.75;7.60;;;;;;;10.60;60.19;102061.84;5011653;28;20168;-85
2022/04/29 04:26:56;;;;;;;9.52;7.50;;;;;;;10.59;60.08;102056.66;5012820;28;20482;-85
2022/04/29 04:29:21;;;;;;;11.88;7.72;;;;;;;10.53;59.27;102060.41;5012877;28;20076;-85
2022/04/29 04:31:47;;;;;;;13.23;7.20;;;;;;;10.51;59.39;102056.97;5013004;28;20018;-85
2022/04/29 04:36:57;;;;;;;9.52;6.93;;;;;;;10.38;58.78;102061.03;5013182;28;20088;-85
2022/04/29 04:39:22;;;;;;;14.75;8.18;;;;;;;10.33;58.81;102069.09;5012701;28;20021;-85
2022/04/29 04:41:48;;;;;;;11.65;7.75;;;;;;;10.24;59.00;102059.78;5012372;28;20387;-85
2022/04/29 04:44:13;;;;;;;12.18;7.93;;;;;;;10.20;58.89;102068.69;5011357;28;20141;-85
2022/04/29 04:46:39;;;;;;;11.43;7.10;;;;;;;10.04;59.19;102060.56;5011155;28;20070;-84
2022/04/29 04:49:05;;;;;;;13.05;7.82;;;;;;;10.02;58.79;102069.41;5010697;28;20026;-85
2022/04/29 04:51:30;;;;;;;13.27;8.13;;;;;;;10.01;59.27;102062.44;5043960;28;20030;-85
2022/04/29 04:53:55;;;;;;;10.40;7.38;;;;;;;9.98;58.59;102070.47;5012462;28;20026;-84
2022/04/29 04:56:21;;;;;;;12.65;7.90;;;;;;;9.94;58.79;102069.72;5011797;28;20529;-85
2022/04/29 04:58:46;;;;;;;14.60;7.93;;;;;;;9.92;58.65;102074.16;5012826;28;20022;-85
2022/04/29 05:01:11;;;;;;;13.60;7.97;;;;;;;9.90;58.90;102076.00;5012373;28;20030;-85
2022/04/29 05:03:37;;;;;;;11.93;8.57;;;;;;;9.85;59.34;102076.19;5012172;28;20101;-85
2022/04/29 05:06:02;;;;;;;13.68;8.10;;;;;;;9.39;60.46;102079.66;5011507;28;20036;-84
2022/04/29 05:08:28;;;;;;;16.42;10.00;;;;;;;9.19;60.99;102086.47;5012191;28;20025;-85
2022/04/29 05:10:53;;;;;;;15.38;10.63;;;;;;;9.19;61.13;102080.38;5011742;28;20518;-85
2022/04/29 05:13:18;;;;;;;13.73;9.68;;;;;;;9.22;61.86;102080.25;5012411;28;20361;-85
2022/04/29 05:15:44;;;;;;;15.57;8.38;;;;;;;9.26;61.23;102079.22;5011896;28;20041;-85
2022/04/29 05:18:10;;;;;;;15.75;9.98;;;;;;;9.30;61.08;102081.69;5011912;28;20030;-85
2022/04/29 05:20:35;;;;;;;16.98;9.18;;;;;;;9.36;61.05;102085.00;5011749;28;20018;-85
2022/04/29 05:23:01;;;;;;;21.10;9.80;;;;;;;9.36;61.13;102083.25;5011785;28;20077;-85
2022/04/29 05:25:26;;;;;;;12.80;8.88;;;;;;;9.41;60.96;102094.41;5011601;28;20030;-85
2022/04/29 05:27:51;;;;;;;12.48;9.15;;;;;;;9.42;60.49;102095.25;5011922;28;20435;-84
2022/04/29 05:30:17;;;;;;;16.08;10.40;;;;;;;9.46;60.71;102092.50;5010944;28;20132;-84
2022/04/29 05:32:42;;;;;;;18.05;9.88;;;;;;;9.43;60.98;102092.59;5012124;28;20026;-84
2022/04/29 05:35:11;;;;;;;17.25;10.73;;;;;;;9.54;60.41;102097.44;5015679;28;20384;-85
2022/04/29 05:37:37;;;;;;;17.98;10.35;;;;;;;9.62;61.08;102092.78;5015752;28;20468;-84
2022/04/29 05:42:47;;;;;;;18.55;11.43;;;;;;;10.00;60.42;102095.72;5015607;28;20067;-85
2022/04/29 05:45:13;;;;;;;13.55;9.80;;;;;;;10.13;59.33;102104.84;5015667;28;20033;-85
2022/04/29 05:47:38;;;;;;;18.48;10.30;;;;;;;10.20;59.56;102102.81;5015498;28;20123;-85
2022/04/29 05:50:04;;;;;;;14.95;10.00;;;;;;;10.30;60.32;102112.06;5015599;28;20074;-84
2022/04/29 05:52:30;;;;;;;14.75;11.45;;;;;;;10.64;59.43;102109.84;5015506;28;20404;-84
2022/04/29 05:54:55;;;;;;;15.85;10.35;;;;;;;10.91;58.16;102107.84;5015133;28;20029;-84
2022/04/29 05:57:21;;;;;;;14.70;10.57;;;;;;;11.16;57.84;102112.94;5015627;28;20183;-84
2022/04/29 05:59:46;;;;;;;20.10;11.85;;;;;;;11.35;57.37;102112.97;5015306;28;20117;-84
2022/04/29 06:02:12;;;;;;;13.32;9.88;;;;;;;11.43;57.14;102108.25;5015086;28;20061;-83
2022/04/29 06:04:37;;;;;;;19.58;9.77;;;;;;;11.51;56.69;102113.13;5015161;28;20109;-83
2022/04/29 06:07:03;;;;;;;16.98;10.93;;;;;;;11.54;56.70;102109.53;5015129;28;20022;-84
2022/04/29 06:09:28;;;;;;;15.13;11.07;;;;;;;11.62;56.46;102112.69;5015002;28;20073;-84
2022/04/29 06:11:53;;;;;;;16.75;11.63;;;;;;;11.72;56.42;102116.59;5014801;28;20428;-84
2022/04/29 06:14:19;;;;;;;21.15;13.00;;;;;;;11.70;56.21;102124.56;5014977;28;20025;-84
2022/04/29 06:16:45;;;;;;;16.35;11.50;;;;;;;11.78;56.30;102121.56;5014909;28;20105;-83
2022/04/29 06:19:11;;;;;;;18.33;12.45;;;;;;;11.73;56.43;102125.34;5015374;28;20038;-83
2022/04/29 06:21:38;;;;;;;17.10;12.55;;;;;;;11.95;55.89;102122.59;5016632;28;20475;-84
2022/04/29 06:24:04;;;;;;;15.05;10.80;;;;;;;12.05;56.08;102129.16;5017132;28;20060;-84
2022/04/29 06:26:30;;;;;;;20.67;11.27;;;;;;;12.15;55.41;102129.59;5015190;28;20101;-84
2022/04/29 06:28:55;;;;;;;15.57;11.73;;;;;;;12.32;55.20;102124.34;5014611;28;20481;-84
2022/04/29 06:31:20;;;;;;;21.42;11.02;;;;;;;12.42;55.01;102127.41;5013198;28;20034;-84
2022/04/29 06:33:46;;;;;;;18.60;10.80;;;;;;;12.55;55.18;102117.13;5014373;28;20057;-84
2022/04/29 06:36:11;;;;;;;18.10;11.95;;;;;;;12.72;54.94;102121.56;5012205;28;20072;-84
2022/04/29 06:38:36;;;;;;;16.60;11.10;;;;;;;12.93;54.19;102131.03;5010035;28;20031;-84
2022/04/29 06:41:02;;;;;;;19.25;11.93;;;;;;;13.06;53.99;102124.22;5009210;28;20099;-84
2022/04/29 06:43:29;;;;;;;18.73;11.80;;;;;;;13.28;53.42;102129.22;5008423;28;20538;-84
2022/04/29 06:45:55;;;;;;;14.88;10.95;;;;;;;13.39;53.25;102134.00;5008622;28;20038;-83
2022/04/29 06:48:20;;;;;;;19.65;11.70;;;;;;;13.51;52.64;102131.63;5007357;28;20381;-84
2022/04/29 06:50:46;;;;;;;19.30;11.98;;;;;;;14.17;52.74;102131.56;5008621;28;20030;-84
2022/04/29 06:53:11;;;;;;;24.10;12.18;;;;;;;14.63;50.65;102131.66;5006863;28;20038;-83
2022/04/29 06:55:40;;;;;;;16.98;11.73;;;;;;;14.84;50.35;102133.97;5008230;28;20022;-84
2022/04/29 06:58:06;;;;;;;17.27;11.48;;;;;;;14.76;50.20;102123.84;5008817;28;20057;-83
2022/04/29 07:00:32;;;;;;;18.42;10.52;;;;;;;15.54;49.73;102125.38;5008344;28;20068;-84
2022/04/29 07:02:58;;;;;;;17.98;10.98;;;;;;;16.25;47.83;102125.34;5008745;28;20109;-84
2022/04/29 07:05:23;;;;;;;15.00;10.35;;;;;;;16.34;47.20;102123.88;5007728;28;20574;-84
2022/04/29 07:07:50;;;;;;;19.85;9.45;;;;;;;16.78;46.42;102127.19;5008186;28;20026;-84
2022/04/29 07:10:16;;;;;;;16.92;10.77;;;;;;;16.74;46.07;102123.06;5008258;28;20079;-84
2022/04/29 07:12:43;;;;;;;15.30;9.82;;;;;;;16.88;46.81;102116.84;5007215;28;20480;-84
2022/04/29 07:15:10;;;;;;;10.85;8.70;;;;;;;17.66;45.58;102119.41;5008137;28;20064;-84
2022/04/29 07:17:35;;;;;;;16.02;9.98;;;;;;;17.99;43.80;102125.94;5008167;28;20479;-84
2022/04/29 07:20:00;;;;;;;13.57;9.10;;;;;;;18.62;43.60;102140.81;5008635;28;20029;-84
2022/04/29 07:22:26;;;;;;;15.98;9.07;;;;;;;18.68;43.07;102142.19;5008811;28;20040;-84
2022/04/29 07:24:52;;;;;;;13.43;9.15;;;;;;;18.88;42.47;102148.69;5007815;28;20030;-84
2022/04/29 07:27:17;;;;;;;20.55;9.80;;;;;;;18.87;42.15;102139.00;5009515;28;20486;-84
2022/04/29 07:29:42;;;;;;;13.18;9.55;;;;;;;18.61;43.16;102148.91;5008491;28;20475;-84
2022/04/29 07:32:08;;;;;;;14.63;8.13;;;;;;;18.49;43.26;102149.84;5008785;28;20038;-84
2022/04/29 07:42:46;;;;;;;13.38;7.97;;;;;;;18.99;42.35;102163.84;5009243;28;20052;-82
2022/04/29 07:45:11;;;;;;;14.63;8.93;;;;;;;19.41;41.91;102164.16;5009367;28;20118;-83
2022/04/29 07:47:37;;;;;;;13.35;7.55;;;;;;;19.34;41.37;102165.63;5008830;28;20123;-83
2022/04/29 07:50:05;;;;;;;12.32;7.68;;;;;;;19.33;42.09;102166.56;5008495;28;20439;-83
2022/04/29 07:52:31;;;;;;;16.20;6.15;;;;;;;19.42;41.75;102164.06;5007730;28;20038;-83
2022/04/29 07:54:57;;;;;;;12.88;7.85;;;;;;;19.28;41.52;102158.94;5008859;28;20040;-83
2022/04/29 07:57:22;;;;;;;16.48;7.82;;;;;;;19.55;40.78;102165.75;5008488;28;20030;-83
2022/04/29 07:59:48;;;;;;;12.88;6.72;;;;;;;19.64;40.77;102165.03;5008911;28;20499;-83
2022/04/29 08:02:14;;;;;;;11.98;6.63;;;;;;;19.89;40.90;102158.66;5008743;28;20047;-82
2022/04/29 08:04:39;;;;;;;14.27;7.43;;;;;;;20.34;39.35;102153.25;5008575;28;20379;-83
2022/04/29 08:07:05;;;;;;;14.93;6.78;;;;;;;20.97;39.67;102155.19;5009030;28;20026;-83
2022/04/29 08:09:30;;;;;;;12.88;6.00;;;;;;;21.21;38.35;102149.59;5009141;28;20524;-83
2022/04/29 08:11:56;;;;;;;13.75;7.05;;;;;;;22.12;37.35;102147.88;5008931;28;20087;-83
2022/04/29 08:14:22;;;;;;;13.27;6.43;;;;;;;22.93;36.17;102158.38;5006585;28;20034;-84
2022/04/29 08:16:49;;;;;;;9.35;5.72;;;;;;;24.57;33.36;102153.50;5008112;28;20036;-84
2022/04/29 08:19:14;;;;;;;9.85;5.68;;;;;;;25.14;32.35;102145.88;5008911;28;20030;-84
2022/04/29 08:21:40;;;;;;;14.43;5.63;;;;;;;24.96;32.25;102148.63;5008028;28;20543;-84
2022/04/29 08:24:05;;;;;;;10.27;5.40;;;;;;;25.19;32.45;102148.91;5008319;28;20094;-84
2022/04/29 08:26:31;;;;;;;10.98;5.55;;;;;;;25.96;31.12;102143.63;5008885;28;20547;-83
2022/04/29 08:28:56;;;;;;;10.70;5.80;;;;;;;26.36;29.02;102136.63;5008009;28;20088;-83
2022/04/29 08:31:22;;;;;;;16.58;6.85;;;;;;;26.44;28.88;102135.81;5040720;28;20044;-83
2022/04/29 08:33:48;;;;;;;7.93;5.13;;;;;;;25.95;29.53;102143.78;5009096;28;20384;-83
2022/04/29 08:36:15;;;;;;;12.63;4.80;;;;;;;25.47;29.85;102143.41;5010899;28;20030;-81
2022/04/29 08:38:41;;;;;;;12.90;5.70;;;;;;;26.08;29.67;102145.00;5008585;28;20033;-83
2022/04/29 08:41:08;;;;;;;15.68;5.72;;;;;;;26.44;29.33;102142.06;5008279;28;20036;-83
2022/04/29 08:43:34;;;;;;;9.52;4.93;;;;;;;27.25;28.92;102142.19;5008402;28;20042;-83
2022/04/29 08:46:01;;;;;;;14.70;5.40;;;;;;;27.03;27.85;102139.19;5007282;28;20018;-83
2022/04/29 08:48:28;;;;;;;8.52;4.18;;;;;;;26.10;28.48;102140.28;5007300;28;20053;-83
2022/04/29 08:50:54;;;;;;;7.93;4.50;;;;;;;25.33;29.67;102140.28;5007921;28;20048;-83
2022/04/29 08:53:20;;;;;;;11.77;5.32;;;;;;;23.61;32.72;102161.91;5008211;28;20044;-84
2022/04/29 08:58:41;;;;;;;9.40;4.47;;;;;;;23.25;33.14;102157.22;4988126;28;20516;-84
2022/04/29 09:01:10;;;;;;;10.25;4.70;;;;;;;24.47;32.80;102153.53;5007693;28;20036;-84
2022/04/29 09:03:37;;;;;;;7.63;5.20;;;;;;;25.38;30.67;102152.44;5006908;28;20479;-83
2022/04/29 09:06:04;;;;;;;13.45;5.80;;;;;;;26.10;29.44;102147.53;5008243;28;20033;-83
2022/04/29 09:08:32;;;;;;;12.55;5.65;;;;;;;25.52;28.91;102144.59;5012330;28;20033;-82
2022/04/29 09:11:00;;;;;;;8.23;5.07;;;;;;;26.07;29.28;102153.25;5021299;28;20034;-83
2022/04/29 09:13:28;;;;;;;9.10;4.22;;;;;;;25.66;29.96;102153.91;5012851;28;20034;-83
2022/04/29 09:15:59;;;;;;;10.23;5.22;;;;;;;25.04;30.35;102155.88;5019483;28;20030;-83
2022/04/29 09:18:32;;;;;;;;;;;;;;;25.20;30.73;102156.00;5009966;28;20040;-83
2022/04/29 09:20:58;;;;;;;8.27;5.07;;;;;;;24.36;31.76;102151.91;5011638;28;19948;-83
2022/04/29 09:23:30;;;;;;;8.77;5.10;;;;;;;24.09;32.66;102150.97;5011720;28;20030;-83
2022/04/29 09:25:59;;;;;;;12.57;5.75;;;;;;;23.75;33.42;102148.00;5011403;28;20125;-83
2022/04/29 09:28:25;;;;;;;13.13;5.60;;;;;;;23.79;32.95;102156.63;5011676;28;20032;-83
2022/04/29 09:30:56;;;;;;;10.60;5.55;;;;;;;23.73;33.84;102153.50;5010271;28;20042;-83
2022/04/29 09:33:24;;;;;;;10.40;6.40;;;;;;;23.84;34.40;102152.50;5010572;28;20034;-83
2022/04/29 09:35:50;;;;;;;12.98;5.55;;;;;;;25.35;34.39;102152.75;5011442;28;20097;-82
2022/04/29 09:41:00;;;;;;;10.88;5.20;;;;;;;24.59;33.05;102156.88;5011217;28;20056;-83
2022/04/29 09:43:35;;;;;;;11.60;5.45;;;;;;;24.65;32.88;102150.88;5011843;28;20030;-82
2022/04/29 09:46:17;;;;;;;10.77;6.80;;;;;;;24.12;32.48;102152.50;5010952;28;20037;-83
2022/04/29 09:48:58;;;;;;;12.80;6.13;;;;;;;23.20;34.40;102154.13;5010949;28;20025;-82
2022/04/29 09:51:51;;;;;;;10.65;5.10;;;;;;;23.83;32.57;102149.97;5010281;28;20088;-82
2022/04/29 09:54:27;;;;;;;15.65;5.70;;;;;;;23.03;33.10;102145.00;5006240;28;20108;-83
2022/04/29 09:57:05;;;;;;;11.30;5.55;;;;;;;22.25;34.80;102154.84;5010752;28;20128;-83
2022/04/29 09:59:37;;;;;;;10.20;5.50;;;;;;;22.44;33.84;102149.50;5010959;28;20034;-83
2022/04/29 10:02:04;;;;;;;13.60;6.28;;;;;;;21.54;35.19;102151.22;5010848;28;20041;-83
2022/04/29 10:04:31;;;;;;;15.93;5.88;;;;;;;21.13;35.81;102152.94;5010039;28;20072;-82
2022/04/29 10:06:57;;;;;;;10.27;6.05;;;;;;;21.06;36.26;102142.91;5009459;28;20030;-83
2022/04/29 10:09:28;;;;;;;17.85;6.45;;;;;;;21.14;35.57;102145.75;5011005;28;20156;-82
2022/04/29 10:11:56;;;;;;;10.40;6.00;;;;;;;21.24;35.11;102138.63;5009467;28;20029;-83
2022/04/29 10:14:22;;;;;;;14.55;6.53;;;;;;;21.36;35.29;102134.06;5010401;28;20290;-83
2022/04/29 10:21:15;;;;;;;12.55;6.38;;;;;;;21.13;36.71;102138.69;5010121;28;20117;-83
2022/04/29 10:22:26;;;;;;;11.88;6.28;;;;;;;22.27;34.33;102134.13;5010441;28;20072;-83
2022/04/29 10:24:52;;;;;;;17.42;7.80;;;;;;;23.42;32.28;102125.28;5012488;28;20575;-82
2022/04/29 10:27:18;;;;;;;14.55;7.53;;;;;;;24.78;30.91;102116.38;5021624;28;20104;-82
2022/04/29 10:29:44;;;;;;;13.68;7.88;;;;;;;25.78;28.92;102115.97;5030146;28;20041;-83
2022/04/29 10:32:10;;;;;;;13.95;6.13;;;;;;;26.98;26.11;102124.56;5023764;28;20044;-83
2022/04/29 10:34:36;;;;;;;11.75;5.93;;;;;;;27.65;23.83;102122.34;5008978;28;20034;-83
2022/04/29 10:37:10;;;;;;;14.90;7.30;;;;;;;27.09;24.88;102114.25;5010042;28;20175;-83
2022/04/29 10:39:35;;;;;;;10.68;5.88;;;;;;;27.20;23.87;102115.72;5010103;28;20030;-82
2022/04/29 10:42:09;;;;;;;10.25;6.25;;;;;;;26.51;25.67;102118.81;5010726;28;20033;-83
2022/04/29 10:44:55;;;;;;;9.63;6.18;;;;;;;25.22;28.77;102119.06;5010423;28;20494;-83
2022/04/29 10:47:59;;;;;;;14.68;7.40;;;;;;;24.37;29.96;102121.41;5009549;28;20041;-83
2022/04/29 10:50:29;;;;;;;11.65;6.57;;;;;;;23.91;31.61;102120.56;5007866;28;20053;-83
2022/04/29 10:53:04;;;;;;;12.50;6.15;;;;;;;23.49;31.54;102121.03;5009990;28;20042;-83
2022/04/29 10:55:31;;;;;;;8.65;5.22;;;;;;;23.68;31.84;102125.47;5010200;28;20026;-83
2022/04/29 10:58:01;;;;;;;11.82;7.10;;;;;;;23.38;31.14;102119.41;5010092;28;20025;-83
2022/04/29 11:00:28;;;;;;;10.13;5.60;;;;;;;23.48;32.13;102116.66;5009610;28;20033;-82
2022/04/29 11:02:53;;;;;;;15.90;6.75;;;;;;;22.65;32.80;102127.97;5008735;28;20034;-83
2022/04/29 11:05:36;;;;;;;10.02;5.55;;;;;;;23.03;32.99;102125.41;5009907;28;20033;-83
2022/04/29 11:08:07;;;;;;;11.13;5.63;;;;;;;23.24;32.47;102115.31;5009636;28;20087;-83
2022/04/29 11:10:55;;;;;;;10.65;5.88;;;;;;;23.39;31.53;102126.44;5009600;28;20033;-83
2022/04/29 11:13:23;;;;;;;11.70;5.93;;;;;;;23.05;31.09;102118.91;4993995;28;20080;-83
2022/04/29 11:15:50;;;;;;;13.15;5.82;;;;;;;23.07;31.83;102126.81;5009066;28;20026;-83
2022/04/29 11:18:23;;;;;;;10.20;5.95;;;;;;;22.67;31.60;102119.78;5008894;28;20057;-83
2022/04/29 11:20:55;;;;;;;12.75;5.68;;;;;;;22.91;31.67;102128.22;5009670;28;20037;-83
2022/04/29 11:26:11;;;;;;;13.68;5.85;;;;;;;23.53;30.19;102117.06;5007501;28;20045;-83
2022/04/29 11:28:37;;;;;;;8.57;5.45;;;;;;;23.64;30.38;102127.59;5009312;28;20029;-83
2022/04/29 11:31:05;;;;;;;14.88;4.90;;;;;;;24.58;28.96;102121.09;5007978;28;20117;-82
2022/04/29 11:33:31;;;;;;;10.77;5.63;;;;;;;24.78;27.80;102116.38;5007045;28;20473;-82
2022/04/29 11:36:00;;;;;;;12.00;5.85;;;;;;;24.43;30.06;102104.66;5008960;28;20334;-83
2022/04/29 11:38:26;;;;;;;8.98;4.70;;;;;;;24.45;30.08;102108.03;5009385;28;20117;-84
2022/04/29 11:40:51;;;;;;;7.82;5.07;;;;;;;24.81;29.07;102101.81;5008804;28;20037;-82